Time;durP1;ratioP1;P1;durP2;ratioP2;P2;SDS_P1;SDS_P2;PMS_P1;PMS_P2;Temp;Humidity;BMP_temperature;BMP_pressure;BME280_temperature;BME280_humidity;BME280_pressure;Samples;Min_cycle;Max_cycle;Signal;HPM_P1;HPM_P2
2022/03/14 00:00:38;;;;;;;100.07;40.20;;;;;;;;;;4742024;30;20044;-84
2022/03/14 00:03:25;;;;;;;73.68;29.70;;;;;;;;;;4743338;30;20048;-82
2022/03/14 00:06:11;;;;;;;87.30;34.55;;;;;;;;;;4744557;30;20040;-82
2022/03/14 00:08:58;;;;;;;78.70;34.60;;;;;;;;;;4750431;30;20060;-78
2022/03/14 00:11:44;;;;;;;72.38;31.63;;;;;;;;;;4751051;30;20390;-82
2022/03/14 00:14:29;;;;;;;69.65;31.90;;;;;;;;;;4756324;30;20472;-82
2022/03/14 00:17:15;;;;;;;77.13;33.10;;;;;;;;;;4753115;30;20044;-82
2022/03/14 00:20:04;;;;;;;84.28;31.95;;;;;;;;;;4752487;30;20049;-80
2022/03/14 00:22:49;;;;;;;71.32;29.60;;;;;;;;;;4753390;30;20044;-82
2022/03/14 00:25:37;;;;;;;77.82;30.85;;;;;;;;;;4753995;30;20485;-81
2022/03/14 00:28:22;;;;;;;69.22;29.45;;;;;;;;;;4765089;30;20051;-82
2022/03/14 00:31:09;;;;;;;76.50;30.65;;;;;;;;;;4770027;30;20052;-82
2022/03/14 00:33:55;;;;;;;75.05;29.27;;;;;;;;;;4754358;30;20385;-82
2022/03/14 00:36:42;;;;;;;80.13;34.33;;;;;;;;;;4751954;30;20048;-82
2022/03/14 00:39:30;;;;;;;111.38;44.22;;;;;;;;;;4751932;30;20043;-81
2022/03/14 00:42:20;;;;;;;101.45;41.00;;;;;;;;;;4751403;30;20048;-81
2022/03/14 00:45:08;;;;;;;121.20;51.30;;;;;;;;;;4753411;30;20048;-80
2022/03/14 00:47:54;;;;;;;115.18;45.28;;;;;;;;;;4749376;30;20048;-82
2022/03/14 00:50:40;;;;;;;76.30;31.48;;;;;;;;;;4764439;30;20070;-80
2022/03/14 00:53:25;;;;;;;65.40;28.30;;;;;;;;;;4763372;30;20040;-81
2022/03/14 00:56:12;;;;;;;57.65;26.30;;;;;;;;;;4758809;30;20056;-82
2022/03/14 00:58:59;;;;;;;56.10;24.70;;;;;;;;;;4759393;30;20064;-81
2022/03/14 01:01:45;;;;;;;65.40;28.48;;;;;;;;;;4753238;30;20052;-81
2022/03/14 01:04:31;;;;;;;66.65;31.65;;;;;;;;;;4770953;30;20051;-78
2022/03/14 01:07:16;;;;;;;70.50;33.03;;;;;;;;;;4761335;30;20048;-81
2022/03/14 01:10:05;;;;;;;80.95;32.70;;;;;;;;;;4756541;30;20044;-80
2022/03/14 01:12:51;;;;;;;89.15;35.70;;;;;;;;;;4755619;30;20489;-80
2022/03/14 01:15:37;;;;;;;86.80;37.13;;;;;;;;;;4762455;30;20048;-82
2022/03/14 01:18:25;;;;;;;96.22;37.00;;;;;;;;;;4755956;30;20048;-81
2022/03/14 01:21:10;;;;;;;98.68;40.45;;;;;;;;;;4756041;30;20040;-81
2022/03/14 01:23:59;;;;;;;110.30;40.80;;;;;;;;;;4767920;30;20052;-81
2022/03/14 01:26:44;;;;;;;140.55;51.47;;;;;;;;;;4755796;30;20052;-82
2022/03/14 01:29:30;;;;;;;105.78;40.92;;;;;;;;;;4756236;30;20056;-82
2022/03/14 01:32:16;;;;;;;91.53;35.53;;;;;;;;;;4761567;30;20048;-81
2022/03/14 01:35:01;;;;;;;74.70;31.45;;;;;;;;;;4754988;30;20469;-82
2022/03/14 01:37:50;;;;;;;63.65;28.60;;;;;;;;;;4756448;30;20048;-81
2022/03/14 01:40:36;;;;;;;82.10;32.80;;;;;;;;;;4761342;30;20392;-80
2022/03/14 01:43:25;;;;;;;89.30;34.55;;;;;;;;;;4756080;30;20048;-81
2022/03/14 01:46:15;;;;;;;97.70;35.22;;;;;;;;;;4756396;30;20056;-82
2022/03/14 01:49:00;;;;;;;76.05;33.53;;;;;;;;;;4769695;30;20056;-80
2022/03/14 01:51:46;;;;;;;85.20;33.75;;;;;;;;;;4757796;30;20048;-81
2022/03/14 01:54:32;;;;;;;69.72;29.60;;;;;;;;;;4756434;30;20052;-79
2022/03/14 01:57:18;;;;;;;60.38;27.38;;;;;;;;;;4755831;30;20052;-81
2022/03/14 02:00:07;;;;;;;65.78;28.52;;;;;;;;;;4756114;30;20485;-80
2022/03/14 02:02:59;;;;;;;66.25;28.63;;;;;;;;;;4755540;30;20048;-82
2022/03/14 02:05:45;;;;;;;55.63;25.48;;;;;;;;;;4755888;30;20381;-81
2022/03/14 02:08:31;;;;;;;44.10;19.23;;;;;;;;;;4760652;30;20052;-81
2022/03/14 02:11:17;;;;;;;53.30;21.85;;;;;;;;;;4755345;30;20486;-81
2022/03/14 02:14:03;;;;;;;54.65;23.10;;;;;;;;;;4772916;30;20052;-81
2022/03/14 02:16:49;;;;;;;53.47;24.40;;;;;;;;;;4754828;30;20052;-80
2022/03/14 02:19:34;;;;;;;83.07;30.10;;;;;;;;;;4766662;30;20052;-80
2022/03/14 02:22:19;;;;;;;73.03;29.85;;;;;;;;;;4754269;30;20054;-82
2022/03/14 02:25:10;;;;;;;76.72;32.03;;;;;;;;;;4754780;30;20052;-81
2022/03/14 02:27:55;;;;;;;100.88;37.45;;;;;;;;;;4771983;30;20047;-81
2022/03/14 02:30:42;;;;;;;105.03;35.97;;;;;;;;;;4754786;30;20052;-80
2022/03/14 02:33:41;;;;;;;94.03;33.97;;;;;;;;;;4755821;30;20060;-80
2022/03/14 02:36:27;;;;;;;63.75;26.45;;;;;;;;;;4762121;30;20052;-80
2022/03/14 02:39:12;;;;;;;62.40;27.13;;;;;;;;;;4754812;30;20044;-82
2022/03/14 02:42:39;;;;;;;78.38;31.23;;;;;;;;;;4756969;30;20048;-82
2022/03/14 02:45:23;;;;;;;86.72;34.13;;;;;;;;;;4700315;30;20049;-81
2022/03/14 02:48:09;;;;;;;97.43;37.55;;;;;;;;;;4760589;30;20040;-81
2022/03/14 02:50:55;;;;;;;105.95;40.92;;;;;;;;;;4754380;30;20458;-81
2022/03/14 02:53:40;;;;;;;118.43;42.72;;;;;;;;;;4754338;30;20056;-82
2022/03/14 02:56:26;;;;;;;125.25;47.10;;;;;;;;;;4754033;30;20052;-80
2022/03/14 02:59:12;;;;;;;147.00;52.40;;;;;;;;;;4754133;30;20048;-79
2022/03/14 03:01:57;;;;;;;133.90;50.33;;;;;;;;;;4754692;30;20048;-80
2022/03/14 03:04:42;;;;;;;117.03;43.47;;;;;;;;;;4771302;30;20048;-80
2022/03/14 03:07:28;;;;;;;66.78;26.48;;;;;;;;;;4754142;30;20047;-80
2022/03/14 03:10:23;;;;;;;51.55;21.92;;;;;;;;;;4753689;30;20478;-79
2022/03/14 03:13:12;;;;;;;42.28;18.77;;;;;;;;;;4759969;30;20052;-80
2022/03/14 03:15:57;;;;;;;31.25;15.68;;;;;;;;;;4759788;30;20051;-81
2022/03/14 03:18:44;;;;;;;40.65;16.52;;;;;;;;;;4753593;30;20060;-80
2022/03/14 03:21:30;;;;;;;38.67;16.73;;;;;;;;;;4754776;30;20044;-81
2022/03/14 03:24:18;;;;;;;38.97;16.63;;;;;;;;;;4753212;30;20052;-81
2022/03/14 03:27:04;;;;;;;47.90;20.48;;;;;;;;;;4766062;30;20469;-80
2022/03/14 03:29:50;;;;;;;178.43;58.63;;;;;;;;;;4758909;30;20381;-80
2022/03/14 03:32:36;;;;;;;106.97;37.38;;;;;;;;;;4771099;30;20051;-80
2022/03/14 03:35:22;;;;;;;81.53;30.92;;;;;;;;;;4754125;30;20051;-81
2022/03/14 03:38:08;;;;;;;74.07;31.73;;;;;;;;;;4765573;30;20052;-80
2022/03/14 03:40:54;;;;;;;58.75;26.13;;;;;;;;;;4764676;30;20048;-81
2022/03/14 03:43:44;;;;;;;62.05;28.70;;;;;;;;;;4768712;30;20047;-82
2022/03/14 03:46:29;;;;;;;97.20;36.03;;;;;;;;;;4753610;30;20052;-81
2022/03/14 03:49:20;;;;;;;76.85;32.25;;;;;;;;;;4753726;30;20048;-81
2022/03/14 03:52:07;;;;;;;76.13;30.58;;;;;;;;;;4753536;30;20393;-79
2022/03/14 03:54:53;;;;;;;67.57;26.20;;;;;;;;;;4771108;30;20048;-81
2022/03/14 03:57:38;;;;;;;62.42;25.40;;;;;;;;;;4753593;30;20040;-80
2022/03/14 04:00:25;;;;;;;70.63;26.83;;;;;;;;;;4770368;30;20048;-81
2022/03/14 04:03:11;;;;;;;68.95;27.30;;;;;;;;;;4753923;30;20044;-81
2022/03/14 04:05:56;;;;;;;76.38;29.77;;;;;;;;;;4766353;30;20052;-81
2022/03/14 04:08:42;;;;;;;67.95;27.80;;;;;;;;;;4754557;30;20048;-80
2022/03/14 04:11:28;;;;;;;62.08;26.70;;;;;;;;;;4759049;30;20059;-80
2022/03/14 04:14:15;;;;;;;67.18;27.40;;;;;;;;;;4770406;30;20056;-80
2022/03/14 04:17:02;;;;;;;61.70;26.25;;;;;;;;;;4760509;30;20388;-79
2022/03/14 04:19:48;;;;;;;38.03;17.55;;;;;;;;;;4752630;30;20056;-80
2022/03/14 04:22:37;;;;;;;29.90;15.15;;;;;;;;;;4753356;30;20052;-80
2022/03/14 04:25:22;;;;;;;33.90;13.30;;;;;;;;;;4746521;30;20043;-79
2022/03/14 04:28:07;;;;;;;31.58;13.68;;;;;;;;;;4753132;30;20225;-79
2022/03/14 04:30:53;;;;;;;31.85;14.93;;;;;;;;;;4759498;30;20048;-82
2022/03/14 04:33:39;;;;;;;31.85;13.15;;;;;;;;;;4743356;30;20044;-80
2022/03/14 04:36:25;;;;;;;21.42;9.73;;;;;;;;;;4765239;30;20052;-81
2022/03/14 04:39:12;;;;;;;29.80;11.93;;;;;;;;;;4753948;30;20048;-79
2022/03/14 04:42:02;;;;;;;25.80;9.57;;;;;;;;;;4766548;30;20048;-81
2022/03/14 04:44:52;;;;;;;17.77;10.07;;;;;;;;;;4787581;30;20050;-80
2022/03/14 04:47:59;;;;;;;19.20;9.13;;;;;;;;;;4776702;30;20052;-81
2022/03/14 04:50:51;;;;;;;18.10;10.02;;;;;;;;;;4770741;30;20032;-80
2022/03/14 04:53:39;;;;;;;30.70;12.98;;;;;;;;;;4776134;30;20051;-80
2022/03/14 04:56:34;;;;;;;29.30;13.45;;;;;;;;;;4774687;30;20048;-78
2022/03/14 04:59:21;;;;;;;40.95;15.23;;;;;;;;;;4768529;30;20040;-83
2022/03/14 05:02:14;;;;;;;35.35;16.08;;;;;;;;;;4746795;30;20044;-80
2022/03/14 05:05:00;;;;;;;39.97;17.02;;;;;;;;;;4762661;30;20040;-81
2022/03/14 05:07:47;;;;;;;27.88;15.35;;;;;;;;;;4749956;30;20044;-81
2022/03/14 05:10:36;;;;;;;37.50;15.88;;;;;;;;;;4761205;30;20048;-80
2022/03/14 05:13:23;;;;;;;42.95;17.90;;;;;;;;;;4754783;30;20754;-81
2022/03/14 05:16:09;;;;;;;52.30;21.85;;;;;;;;;;4752766;30;20052;-78
2022/03/14 05:18:56;;;;;;;60.63;22.23;;;;;;;;;;4757822;30;20492;-82
2022/03/14 05:21:41;;;;;;;58.20;19.45;;;;;;;;;;4742199;30;20044;-80
2022/03/14 05:24:27;;;;;;;49.45;19.33;;;;;;;;;;4755531;30;20385;-81
2022/03/14 05:27:12;;;;;;;48.20;20.45;;;;;;;;;;4762035;30;20052;-82
2022/03/14 05:29:58;;;;;;;82.30;31.17;;;;;;;;;;4754250;30;20052;-82
2022/03/14 05:32:43;;;;;;;74.45;32.85;;;;;;;;;;4757754;30;20119;-81
2022/03/14 05:35:29;;;;;;;64.22;25.35;;;;;;;;;;4760823;30;20056;-81
2022/03/14 05:38:18;;;;;;;45.80;22.48;;;;;;;;;;4760852;30;20052;-81
2022/03/14 05:41:03;;;;;;;43.25;20.95;;;;;;;;;;4764583;30;20048;-83
2022/03/14 05:43:48;;;;;;;47.70;22.13;;;;;;;;;;4762539;30;20111;-82
2022/03/14 05:46:33;;;;;;;50.53;21.20;;;;;;;;;;4757085;30;20052;-81
2022/03/14 05:49:19;;;;;;;43.40;19.92;;;;;;;;;;4757133;30;20388;-81
2022/03/14 05:52:07;;;;;;;48.22;21.83;;;;;;;;;;4762566;30;20036;-81
2022/03/14 05:54:52;;;;;;;56.03;22.42;;;;;;;;;;4746643;30;20056;-82
2022/03/14 05:57:40;;;;;;;43.97;18.48;;;;;;;;;;4756332;30;20056;-80
2022/03/14 06:00:25;;;;;;;62.83;25.50;;;;;;;;;;4763319;30;20052;-82
2022/03/14 06:03:12;;;;;;;75.05;29.67;;;;;;;;;;4754571;30;20044;-81
2022/03/14 06:05:57;;;;;;;61.03;29.15;;;;;;;;;;4755643;30;20052;-83
2022/03/14 06:08:43;;;;;;;60.63;28.20;;;;;;;;;;4759729;30;20044;-86
2022/03/14 06:11:28;;;;;;;62.05;27.50;;;;;;;;;;4753969;30;20068;-87
2022/03/14 06:14:13;;;;;;;62.20;30.13;;;;;;;;;;4755348;30;20055;-86
2022/03/14 06:16:59;;;;;;;80.32;34.17;;;;;;;;;;4754656;30;20048;-86
2022/03/14 06:19:44;;;;;;;88.57;37.75;;;;;;;;;;4759640;30;20052;-84
2022/03/14 06:22:30;;;;;;;93.95;41.17;;;;;;;;;;4764543;30;20056;-83
2022/03/14 06:25:17;;;;;;;107.63;48.38;;;;;;;;;;4771010;30;20048;-84
2022/03/14 06:28:03;;;;;;;140.68;60.58;;;;;;;;;;4761931;30;20048;-87
2022/03/14 06:30:49;;;;;;;154.60;70.93;;;;;;;;;;4755947;30;20381;-88
2022/03/14 06:33:34;;;;;;;153.23;64.40;;;;;;;;;;4757780;30;20052;-88
2022/03/14 06:36:20;;;;;;;133.73;55.58;;;;;;;;;;4754629;30;20469;-88
2022/03/14 06:39:06;;;;;;;95.38;43.20;;;;;;;;;;4753303;30;20504;-87
2022/03/14 06:41:51;;;;;;;80.35;35.63;;;;;;;;;;4754352;30;20048;-87
2022/03/14 06:44:38;;;;;;;75.22;37.63;;;;;;;;;;4759419;30;20489;-87
2022/03/14 06:47:24;;;;;;;104.60;43.20;;;;;;;;;;4754176;30;20381;-88
2022/03/14 06:50:10;;;;;;;82.28;34.53;;;;;;;;;;4754299;30;20043;-87
2022/03/14 06:52:59;;;;;;;51.55;29.50;;;;;;;;;;4754307;30;20036;-89
2022/03/14 06:55:45;;;;;;;57.47;30.70;;;;;;;;;;4746416;30;20044;-89
2022/03/14 06:58:30;;;;;;;64.53;32.80;;;;;;;;;;4740723;30;20040;-89
2022/03/14 07:01:18;;;;;;;125.30;56.22;;;;;;;;;;4752795;30;20481;-88
2022/03/14 07:04:04;;;;;;;108.35;47.03;;;;;;;;;;4762737;30;20052;-84
2022/03/14 07:06:49;;;;;;;91.15;40.05;;;;;;;;;;4761629;30;20048;-89
2022/03/14 07:09:35;;;;;;;68.57;35.97;;;;;;;;;;4759112;30;20485;-87
2022/03/14 07:12:20;;;;;;;86.40;41.70;;;;;;;;;;4753328;30;20041;-85
2022/03/14 07:15:06;;;;;;;72.60;37.00;;;;;;;;;;4753846;30;20481;-87
2022/03/14 07:17:52;;;;;;;51.53;26.88;;;;;;;;;;4759801;30;20070;-87
2022/03/14 07:20:38;;;;;;;75.45;36.28;;;;;;;;;;4754142;30;20385;-87
2022/03/14 07:23:24;;;;;;;70.97;34.92;;;;;;;;;;4753429;30;20052;-89
2022/03/14 07:26:10;;;;;;;60.35;30.15;;;;;;;;;;4754045;30;20043;-86
2022/03/14 07:28:55;;;;;;;117.82;53.92;;;;;;;;;;4753335;30;20052;-85
2022/03/14 07:31:41;;;;;;;52.90;26.98;;;;;;;;;;4753699;30;20048;-85
2022/03/14 07:34:28;;;;;;;70.53;32.30;;;;;;;;;;4753139;30;20477;-84
2022/03/14 07:37:13;;;;;;;55.63;28.08;;;;;;;;;;4743904;30;20052;-85
2022/03/14 07:39:58;;;;;;;69.68;31.90;;;;;;;;;;4751075;30;20048;-87
2022/03/14 07:42:45;;;;;;;37.47;20.00;;;;;;;;;;4755718;30;20056;-87
2022/03/14 07:45:32;;;;;;;44.97;23.70;;;;;;;;;;4761975;30;20048;-88
2022/03/14 07:48:17;;;;;;;43.78;21.58;;;;;;;;;;4757320;30;20040;-86
2022/03/14 07:51:03;;;;;;;44.55;22.40;;;;;;;;;;4771034;30;20048;-84
2022/03/14 07:53:48;;;;;;;39.20;20.40;;;;;;;;;;4759829;30;20044;-86
2022/03/14 07:56:40;;;;;;;37.33;21.02;;;;;;;;;;4759053;30;20055;-87
2022/03/14 07:59:25;;;;;;;63.38;30.67;;;;;;;;;;4757275;30;20048;-88
2022/03/14 08:02:11;;;;;;;51.47;27.05;;;;;;;;;;4757393;30;20044;-85
2022/03/14 08:04:57;;;;;;;47.72;26.63;;;;;;;;;;4754481;30;20048;-88
2022/03/14 08:07:47;;;;;;;55.17;27.27;;;;;;;;;;4773771;30;20052;-84
2022/03/14 08:10:32;;;;;;;50.95;27.92;;;;;;;;;;4760177;30;20052;-88
2022/03/14 08:13:19;;;;;;;58.38;31.00;;;;;;;;;;4735122;30;20044;-86
2022/03/14 08:16:04;;;;;;;51.42;29.00;;;;;;;;;;4762462;30;20040;-87
2022/03/14 08:18:49;;;;;;;48.33;25.60;;;;;;;;;;4733564;30;20049;-86
2022/03/14 08:21:34;;;;;;;53.33;28.38;;;;;;;;;;4745909;30;20389;-87
2022/03/14 08:24:19;;;;;;;49.47;26.77;;;;;;;;;;4746008;30;20052;-87
2022/03/14 08:27:05;;;;;;;51.45;25.83;;;;;;;;;;4741054;30;20053;-87
2022/03/14 08:29:50;;;;;;;55.92;27.77;;;;;;;;;;4744409;30;20056;-88
2022/03/14 08:32:39;;;;;;;45.85;26.38;;;;;;;;;;4739392;30;20041;-87
2022/03/14 08:35:24;;;;;;;51.03;28.00;;;;;;;;;;4739554;30;20044;-87
2022/03/14 08:38:09;;;;;;;50.72;26.88;;;;;;;;;;4747936;30;20045;-87
2022/03/14 08:40:55;;;;;;;57.47;30.02;;;;;;;;;;4753052;30;20052;-86
2022/03/14 08:43:41;;;;;;;58.28;29.83;;;;;;;;;;4762414;30;20037;-87
2022/03/14 08:46:27;;;;;;;50.05;28.45;;;;;;;;;;4762989;30;20048;-87
2022/03/14 08:49:13;;;;;;;49.90;27.80;;;;;;;;;;4768175;30;20048;-87
2022/03/14 08:51:59;;;;;;;65.88;28.02;;;;;;;;;;4762683;30;20052;-88
2022/03/14 08:54:45;;;;;;;33.95;17.20;;;;;;;;;;4756237;30;20381;-86
2022/03/14 08:57:31;;;;;;;40.97;22.38;;;;;;;;;;4749680;30;20048;-88
2022/03/14 09:00:19;;;;;;;41.75;21.58;;;;;;;;;;4762842;30;20048;-84
2022/03/14 09:03:04;;;;;;;68.75;30.38;;;;;;;;;;4767804;30;20052;-85
2022/03/14 09:05:49;;;;;;;51.65;23.70;;;;;;;;;;4757563;30;20039;-83
2022/03/14 09:08:35;;;;;;;43.30;23.83;;;;;;;;;;4769641;30;20036;-83
2022/03/14 09:11:21;;;;;;;32.13;16.35;;;;;;;;;;4758337;30;20044;-82
2022/03/14 09:14:08;;;;;;;48.17;23.92;;;;;;;;;;4753428;30;20048;-83
2022/03/14 09:16:54;;;;;;;45.85;25.10;;;;;;;;;;4747389;30;20040;-82
2022/03/14 09:19:40;;;;;;;44.88;23.30;;;;;;;;;;4779303;30;20445;-83
2022/03/14 09:22:29;;;;;;;48.78;24.42;;;;;;;;;;4779162;30;20044;-82
2022/03/14 09:25:15;;;;;;;49.92;23.50;;;;;;;;;;4773883;30;20060;-82
2022/03/14 09:28:00;;;;;;;44.35;23.08;;;;;;;;;;4772047;30;20408;-82
2022/03/14 09:30:47;;;;;;;50.22;26.27;;;;;;;;;;4755965;30;20056;-83
2022/03/14 09:33:32;;;;;;;46.75;25.42;;;;;;;;;;4755407;30;20043;-83
2022/03/14 09:36:18;;;;;;;57.40;25.38;;;;;;;;;;4755159;30;20388;-82
2022/03/14 09:39:04;;;;;;;46.80;24.75;;;;;;;;;;4765201;30;20476;-82
2022/03/14 09:41:53;;;;;;;44.25;23.42;;;;;;;;;;4761925;30;20047;-81
2022/03/14 09:44:42;;;;;;;17.25;9.55;;;;;;;;;;4779398;30;20070;-83
2022/03/14 09:47:28;;;;;;;15.93;8.85;;;;;;;;;;4755967;30;20044;-82
2022/03/14 09:50:20;;;;;;;23.08;12.38;;;;;;;;;;4755024;30;20040;-83
2022/03/14 09:53:07;;;;;;;18.88;9.05;;;;;;;;;;4754328;30;20376;-82
2022/03/14 09:55:56;;;;;;;20.17;10.98;;;;;;;;;;4771154;30;20392;-82
2022/03/14 09:58:44;;;;;;;15.93;9.02;;;;;;;;;;4772977;30;20055;-81
2022/03/14 10:01:30;;;;;;;20.58;11.80;;;;;;;;;;4773365;30;20043;-81
2022/03/14 10:04:16;;;;;;;21.50;8.27;;;;;;;;;;4772117;30;20043;-80
2022/03/14 10:07:02;;;;;;;17.05;8.90;;;;;;;;;;4772421;30;20047;-83
2022/03/14 10:09:51;;;;;;;17.90;10.02;;;;;;;;;;4774239;30;20361;-82
2022/03/14 10:12:36;;;;;;;21.38;12.48;;;;;;;;;;4758905;30;20381;-83
2022/03/14 10:15:35;;;;;;;20.80;10.30;;;;;;;;;;4754590;30;20044;-81
2022/03/14 10:18:21;;;;;;;22.13;10.90;;;;;;;;;;4754258;30;20048;-81
2022/03/14 10:21:06;;;;;;;56.30;25.42;;;;;;;;;;4755581;30;20048;-83
2022/03/14 10:23:52;;;;;;;48.28;24.95;;;;;;;;;;4754595;30;20048;-83
2022/03/14 10:26:43;;;;;;;46.67;20.67;;;;;;;;;;4754782;30;20056;-83
2022/03/14 10:29:30;;;;;;;34.03;15.65;;;;;;;;;;4754726;30;20404;-80
2022/03/14 10:32:33;;;;;;;26.10;10.50;;;;;;;;;;4754268;30;20048;-82
2022/03/14 10:35:20;;;;;;;21.27;11.30;;;;;;;;;;4754189;30;20397;-83
2022/03/14 10:38:07;;;;;;;19.48;10.10;;;;;;;;;;4746818;30;20048;-82
2022/03/14 10:40:56;;;;;;;78.03;44.30;;;;;;;;;;4753079;30;20056;-81
2022/03/14 11:15:58;;;;;;;13.85;7.75;;;;;;;;;;5152628;27;20363;-79
2022/03/14 11:18:44;;;;;;;36.80;20.75;;;;;;;;;;5152782;27;20039;-80
2022/03/14 11:21:31;;;;;;;49.28;23.20;;;;;;;;;;5159198;27;20034;-80
2022/03/14 11:24:17;;;;;;;99.03;44.85;;;;;;;;;;5152532;27;20042;-78
2022/03/14 11:27:05;;;;;;;112.50;50.35;;;;;;;;;;5152342;27;20047;-78
2022/03/14 11:29:52;;;;;;;127.60;55.33;;;;;;;;;;5152473;27;20051;-78
2022/03/14 11:32:38;;;;;;;40.20;19.88;;;;;;;;;;5152518;27;20395;-78
2022/03/14 11:35:24;;;;;;;33.00;19.58;;;;;;;;;;5151777;27;20047;-78
2022/03/14 11:38:10;;;;;;;35.95;22.08;;;;;;;;;;5152045;27;20042;-78
2022/03/14 11:40:57;;;;;;;81.18;41.60;;;;;;;;;;5152034;27;20043;-77
2022/03/14 11:43:44;;;;;;;67.60;36.65;;;;;;;;;;5152275;27;20050;-78
2022/03/14 11:46:33;;;;;;;36.33;16.48;;;;;;;;;;5152200;27;20043;-78
2022/03/14 11:49:18;;;;;;;37.90;23.38;;;;;;;;;;5143588;27;20483;-78
2022/03/14 11:52:12;;;;;;;12.30;8.25;;;;;;;;;;5152245;27;20043;-77
2022/03/14 11:55:02;;;;;;;15.57;9.60;;;;;;;;;;5151604;27;20034;-78
2022/03/14 11:57:48;;;;;;;16.05;9.20;;;;;;;;;;5159028;27;20039;-78
2022/03/14 12:00:35;;;;;;;12.73;7.65;;;;;;;;;;5158677;27;20471;-77
2022/03/14 12:03:37;;;;;;;11.18;5.43;;;;;;;;;;5151623;27;20051;-78
2022/03/14 12:06:47;;;;;;;11.40;6.22;;;;;;;;;;5152820;27;20383;-78
2022/03/14 12:09:35;;;;;;;10.32;5.75;;;;;;;;;;5151499;27;20035;-78
2022/03/14 12:12:21;;;;;;;9.80;5.38;;;;;;;;;;5151476;27;20050;-78
2022/03/14 12:15:07;;;;;;;15.68;8.68;;;;;;;;;;5134053;27;20476;-78
2022/03/14 12:17:52;;;;;;;19.70;7.80;;;;;;;;;;5117240;28;20040;-77
2022/03/14 12:20:37;;;;;;;5.65;3.50;;;;;;;;;;5117001;28;20048;-76
2022/03/14 12:23:31;;;;;;;11.73;5.25;;;;;;;;;;5117327;28;20043;-77
2022/03/14 12:26:25;;;;;;;7.10;3.38;;;;;;;;;;5117808;28;20051;-76
2022/03/14 12:29:43;;;;;;;7.88;4.07;;;;;;;;;;5124833;28;20047;-77
2022/03/14 12:32:34;;;;;;;8.35;4.63;;;;;;;;;;5075171;28;20408;-78
2022/03/14 12:35:22;;;;;;;7.75;4.93;;;;;;;;;;5117135;28;20501;-78
2022/03/14 12:38:16;;;;;;;9.10;5.07;;;;;;;;;;5123774;28;20052;-77
2022/03/14 12:41:02;;;;;;;11.82;6.45;;;;;;;;;;5121678;28;20048;-77
2022/03/14 12:43:47;;;;;;;12.48;6.90;;;;;;;;;;5108273;28;20039;-77
2022/03/14 12:46:33;;;;;;;11.00;6.75;;;;;;;;;;5116692;28;20051;-77
2022/03/14 12:49:45;;;;;;;10.48;5.93;;;;;;;;;;5116594;28;20051;-77
2022/03/14 12:52:31;;;;;;;10.32;4.72;;;;;;;;;;5116578;28;20048;-77
2022/03/14 12:55:18;;;;;;;19.40;5.18;;;;;;;;;;5123281;28;20039;-77
2022/03/14 12:58:05;;;;;;;8.20;5.40;;;;;;;;;;5116378;28;20051;-78
2022/03/14 13:00:50;;;;;;;10.93;7.10;;;;;;;;;;5116848;28;20036;-77
2022/03/14 13:03:36;;;;;;;12.27;6.78;;;;;;;;;;5116814;28;20400;-77
2022/03/14 13:06:30;;;;;;;15.82;8.60;;;;;;;;;;5117234;28;20047;-77
2022/03/14 13:09:26;;;;;;;24.73;12.55;;;;;;;;;;5118178;28;20044;-77
2022/03/14 13:12:13;;;;;;;25.83;8.95;;;;;;;;;;5116679;28;20044;-77
2022/03/14 13:15:10;;;;;;;14.45;7.72;;;;;;;;;;5119075;28;20055;-77
2022/03/14 13:17:55;;;;;;;10.38;5.63;;;;;;;;;;5117006;28;20040;-77
2022/03/14 13:20:40;;;;;;;7.80;4.18;;;;;;;;;;5123524;28;20047;-78
2022/03/14 13:23:26;;;;;;;115.72;57.40;;;;;;;;;;5115899;28;20035;-77
2022/03/14 13:26:12;;;;;;;26.25;16.77;;;;;;;;;;5116371;28;20044;-79
2022/03/14 13:29:02;;;;;;;63.00;36.80;;;;;;;;;;5115247;28;20048;-79
2022/03/14 13:31:49;;;;;;;19.85;13.60;;;;;;;;;;5122454;28;20047;-78
2022/03/14 13:34:35;;;;;;;11.52;7.40;;;;;;;;;;5122074;28;20043;-78
2022/03/14 13:37:21;;;;;;;20.48;11.90;;;;;;;;;;5122350;28;20043;-77
2022/03/14 13:40:23;;;;;;;22.30;17.02;;;;;;;;;;5123086;28;20056;-78
2022/03/14 13:43:08;;;;;;;15.07;10.30;;;;;;;;;;5122105;28;20488;-77
2022/03/14 13:46:30;;;;;;;10.25;4.78;;;;;;;;;;5122079;28;20393;-78
2022/03/14 13:49:16;;;;;;;15.25;8.70;;;;;;;;;;5115414;28;20047;-78
2022/03/14 13:52:06;;;;;;;21.45;13.32;;;;;;;;;;5115460;28;20048;-78
2022/03/14 13:54:53;;;;;;;7.75;3.85;;;;;;;;;;5121645;28;20039;-78
2022/03/14 13:57:38;;;;;;;6.63;3.90;;;;;;;;;;5115205;28;20047;-78
2022/03/14 14:00:24;;;;;;;18.15;7.00;;;;;;;;;;5121556;28;20389;-78
2022/03/14 14:03:09;;;;;;;7.45;4.68;;;;;;;;;;5114818;28;20035;-78
2022/03/14 14:05:55;;;;;;;11.90;3.60;;;;;;;;;;5106598;28;20043;-78
2022/03/14 14:08:41;;;;;;;5.45;3.65;;;;;;;;;;5114749;28;20032;-79
2022/03/14 14:11:27;;;;;;;10.32;5.70;;;;;;;;;;5114854;28;20048;-79
2022/03/14 14:14:12;;;;;;;12.88;6.80;;;;;;;;;;5114307;28;20413;-77
2022/03/14 14:17:11;;;;;;;12.85;7.80;;;;;;;;;;5114550;28;20040;-79
2022/03/14 14:20:20;;;;;;;13.85;6.75;;;;;;;;;;5114869;28;20048;-77
2022/03/14 14:23:15;;;;;;;7.43;4.85;;;;;;;;;;5114535;28;20052;-78
2022/03/14 14:26:01;;;;;;;9.05;6.78;;;;;;;;;;5114710;28;20043;-79
2022/03/14 14:28:46;;;;;;;9.02;5.40;;;;;;;;;;5099143;28;20047;-76
2022/03/14 14:31:32;;;;;;;10.65;5.70;;;;;;;;;;5114466;28;20484;-78
2022/03/14 14:34:17;;;;;;;5.88;3.65;;;;;;;;;;5114197;28;20392;-78
2022/03/14 14:37:03;;;;;;;9.77;4.90;;;;;;;;;;5114278;28;20044;-78
2022/03/14 14:39:49;;;;;;;9.73;3.83;;;;;;;;;;5120779;28;20484;-78
2022/03/14 14:42:34;;;;;;;26.73;14.45;;;;;;;;;;5121568;28;20036;-81
2022/03/14 14:45:20;;;;;;;7.15;4.68;;;;;;;;;;5115666;28;20484;-79
2022/03/14 14:48:06;;;;;;;17.48;7.97;;;;;;;;;;5123299;28;20044;-80
2022/03/14 14:50:51;;;;;;;8.13;4.50;;;;;;;;;;5117610;28;20043;-80
2022/03/14 14:53:40;;;;;;;10.48;6.22;;;;;;;;;;5119583;28;20039;-78
2022/03/14 14:56:25;;;;;;;14.57;8.23;;;;;;;;;;5117482;28;20504;-80
2022/03/14 14:59:12;;;;;;;12.95;6.45;;;;;;;;;;5114127;28;20396;-78
2022/03/14 15:01:57;;;;;;;11.13;5.78;;;;;;;;;;5114352;28;20040;-79
2022/03/14 15:04:43;;;;;;;10.55;6.10;;;;;;;;;;5114115;28;20051;-78
2022/03/14 15:07:30;;;;;;;24.25;9.38;;;;;;;;;;5120936;28;20043;-80
2022/03/14 15:10:15;;;;;;;20.05;8.32;;;;;;;;;;5099080;28;20048;-79
2022/03/14 15:13:01;;;;;;;16.75;9.45;;;;;;;;;;5114184;28;20044;-77
2022/03/14 15:15:49;;;;;;;9.23;4.65;;;;;;;;;;5114687;28;20047;-79
2022/03/14 15:18:35;;;;;;;14.43;7.93;;;;;;;;;;5113790;28;20051;-80
2022/03/14 15:21:21;;;;;;;9.63;5.10;;;;;;;;;;5113849;28;20043;-78
2022/03/14 15:24:07;;;;;;;9.30;4.18;;;;;;;;;;5114072;28;20036;-79
2022/03/14 15:26:52;;;;;;;9.45;5.00;;;;;;;;;;5114425;28;20376;-79
2022/03/14 15:29:38;;;;;;;17.15;7.25;;;;;;;;;;5114072;28;20040;-78
2022/03/14 15:32:24;;;;;;;15.75;9.00;;;;;;;;;;5113617;28;20484;-78
2022/03/14 15:35:12;;;;;;;40.55;23.80;;;;;;;;;;5113856;28;20052;-79
2022/03/14 15:38:01;;;;;;;25.75;14.30;;;;;;;;;;5113806;28;20039;-79
2022/03/14 15:40:46;;;;;;;61.30;30.23;;;;;;;;;;5113734;28;20044;-78
2022/03/14 15:43:32;;;;;;;15.27;7.47;;;;;;;;;;5113933;28;20043;-79
2022/03/14 15:46:18;;;;;;;20.05;11.05;;;;;;;;;;5113522;28;20040;-79
2022/03/14 15:49:03;;;;;;;12.70;7.43;;;;;;;;;;5120667;28;20032;-79
2022/03/14 15:51:49;;;;;;;29.13;16.35;;;;;;;;;;5116738;28;20047;-78
2022/03/14 15:54:35;;;;;;;36.15;17.67;;;;;;;;;;5117267;28;20044;-78
2022/03/14 15:57:20;;;;;;;97.93;45.60;;;;;;;;;;5117423;28;20048;-78
2022/03/14 16:00:06;;;;;;;117.80;58.30;;;;;;;;;;5123917;28;20039;-79
2022/03/14 16:02:57;;;;;;;53.33;32.22;;;;;;;;;;5117264;28;20039;-79
2022/03/14 16:05:44;;;;;;;58.70;34.63;;;;;;;;;;5117156;28;20036;-78
2022/03/14 16:08:31;;;;;;;63.10;34.47;;;;;;;;;;5123800;28;20039;-79
2022/03/14 16:11:17;;;;;;;122.30;46.17;;;;;;;;;;5117249;28;20051;-79
2022/03/14 16:14:04;;;;;;;69.15;30.70;;;;;;;;;;5116668;28;20039;-79
2022/03/14 16:16:50;;;;;;;97.90;38.03;;;;;;;;;;5117044;28;20047;-79
2022/03/14 16:19:36;;;;;;;134.98;48.20;;;;;;;;;;5117134;28;20047;-78
2022/03/14 16:22:21;;;;;;;119.47;44.60;;;;;;;;;;5116802;28;20040;-77
2022/03/14 16:25:07;;;;;;;128.05;45.75;;;;;;;;;;5123756;28;20044;-78
2022/03/14 16:27:55;;;;;;;107.28;44.55;;;;;;;;;;5116614;28;20036;-78
2022/03/14 16:30:41;;;;;;;114.25;47.15;;;;;;;;;;5116421;28;20036;-79
2022/03/14 16:33:28;;;;;;;104.60;50.03;;;;;;;;;;5119522;28;20035;-78
2022/03/14 16:36:14;;;;;;;110.88;41.92;;;;;;;;;;5119371;28;20040;-77
2022/03/14 16:39:00;;;;;;;123.05;54.40;;;;;;;;;;5116866;28;20110;-77
2022/03/14 16:41:46;;;;;;;107.32;51.83;;;;;;;;;;5123323;28;20039;-78
2022/03/14 16:44:31;;;;;;;52.17;30.25;;;;;;;;;;5116602;28;20040;-79
2022/03/14 16:47:17;;;;;;;54.17;33.92;;;;;;;;;;5116648;28;20039;-78